sensor_id;sensor_type;location;lat;lon;timestamp;pressure;altitude;pressure_sealevel;temperature;humidity
79538;BME280;68989;52.032;5.152;2023-04-03T00:01:54;103187.48;;;10.46;48.72
79538;BME280;68989;52.032;5.152;2023-04-03T00:04:21;103187.58;;;10.41;48.51
79538;BME280;68989;52.032;5.152;2023-04-03T00:06:48;103186.56;;;10.37;48.77
79538;BME280;68989;52.032;5.152;2023-04-03T00:09:15;103185.79;;;10.38;49.31
79538;BME280;68989;52.032;5.152;2023-04-03T00:11:42;103185.71;;;10.27;48.87
79538;BME280;68989;52.032;5.152;2023-04-03T00:14:08;103189.04;;;10.25;48.48
79538;BME280;68989;52.032;5.152;2023-04-03T00:16:35;103192.61;;;10.19;48.37
79538;BME280;68989;52.032;5.152;2023-04-03T00:19:02;103198.41;;;10.16;49.43
79538;BME280;68989;52.032;5.152;2023-04-03T00:21:29;103199.40;;;10.17;48.96
79538;BME280;68989;52.032;5.152;2023-04-03T00:23:56;103204.91;;;10.15;48.41
79538;BME280;68989;52.032;5.152;2023-04-03T00:26:23;103206.67;;;10.10;49.00
79538;BME280;68989;52.032;5.152;2023-04-03T00:28:50;103206.81;;;10.12;49.62
79538;BME280;68989;52.032;5.152;2023-04-03T00:31:17;103209.76;;;10.14;48.97
79538;BME280;68989;52.032;5.152;2023-04-03T00:33:44;103207.46;;;10.16;49.43
79538;BME280;68989;52.032;5.152;2023-04-03T00:36:12;103205.15;;;10.20;49.29
79538;BME280;68989;52.032;5.152;2023-04-03T00:38:39;103207.12;;;10.21;48.86
79538;BME280;68989;52.032;5.152;2023-04-03T00:41:07;103206.38;;;10.19;49.37
79538;BME280;68989;52.032;5.152;2023-04-03T00:43:34;103206.33;;;10.16;48.66
79538;BME280;68989;52.032;5.152;2023-04-03T00:46:01;103206.07;;;10.13;48.51
79538;BME280;68989;52.032;5.152;2023-04-03T00:48:31;103208.56;;;10.11;49.08
79538;BME280;68989;52.032;5.152;2023-04-03T00:50:59;103208.15;;;10.10;49.06
79538;BME280;68989;52.032;5.152;2023-04-03T00:53:29;103205.95;;;10.03;48.68
79538;BME280;68989;52.032;5.152;2023-04-03T00:55:58;103208.97;;;9.97;48.96
79538;BME280;68989;52.032;5.152;2023-04-03T00:58:31;103213.21;;;9.84;48.88
79538;BME280;68989;52.032;5.152;2023-04-03T01:02:31;103219.42;;;9.79;49.09
79538;BME280;68989;52.032;5.152;2023-04-03T01:04:58;103221.95;;;9.78;49.08
79538;BME280;68989;52.032;5.152;2023-04-03T01:07:29;103221.60;;;9.81;49.35
79538;BME280;68989;52.032;5.152;2023-04-03T01:09:58;103222.07;;;9.83;49.45
79538;BME280;68989;52.032;5.152;2023-04-03T01:12:28;103224.36;;;9.83;49.40
79538;BME280;68989;52.032;5.152;2023-04-03T01:14:57;103224.62;;;9.78;49.31
79538;BME280;68989;52.032;5.152;2023-04-03T01:17:29;103225.65;;;9.81;49.79
79538;BME280;68989;52.032;5.152;2023-04-03T01:20:17;103225.37;;;9.79;49.49
79538;BME280;68989;52.032;5.152;2023-04-03T01:22:56;103229.02;;;9.77;49.07
79538;BME280;68989;52.032;5.152;2023-04-03T01:25:25;103225.14;;;9.73;49.85
79538;BME280;68989;52.032;5.152;2023-04-03T01:27:53;103222.06;;;9.73;49.25
79538;BME280;68989;52.032;5.152;2023-04-03T01:30:25;103222.43;;;9.68;49.69
79538;BME280;68989;52.032;5.152;2023-04-03T01:32:54;103223.90;;;9.69;49.81
79538;BME280;68989;52.032;5.152;2023-04-03T01:35:22;103224.26;;;9.73;49.47
79538;BME280;68989;52.032;5.152;2023-04-03T01:37:49;103224.95;;;9.72;49.35
79538;BME280;68989;52.032;5.152;2023-04-03T01:40:16;103221.98;;;9.72;49.83
79538;BME280;68989;52.032;5.152;2023-04-03T01:42:42;103220.95;;;9.73;49.82
79538;BME280;68989;52.032;5.152;2023-04-03T01:45:10;103223.29;;;9.75;49.90
79538;BME280;68989;52.032;5.152;2023-04-03T01:47:37;103220.00;;;9.76;49.84
79538;BME280;68989;52.032;5.152;2023-04-03T01:50:05;103219.47;;;9.75;49.45
79538;BME280;68989;52.032;5.152;2023-04-03T01:52:33;103223.64;;;9.76;49.81
79538;BME280;68989;52.032;5.152;2023-04-03T01:55:00;103223.03;;;9.80;49.93
79538;BME280;68989;52.032;5.152;2023-04-03T01:57:27;103224.41;;;9.82;49.74
79538;BME280;68989;52.032;5.152;2023-04-03T01:59:54;103223.43;;;9.85;49.83
79538;BME280;68989;52.032;5.152;2023-04-03T02:02:21;103223.36;;;9.88;49.69
79538;BME280;68989;52.032;5.152;2023-04-03T02:04:48;103227.89;;;9.88;49.51
79538;BME280;68989;52.032;5.152;2023-04-03T02:07:15;103232.49;;;9.87;49.46
79538;BME280;68989;52.032;5.152;2023-04-03T02:09:42;103234.97;;;9.87;49.45
79538;BME280;68989;52.032;5.152;2023-04-03T02:12:09;103236.25;;;9.88;49.63
79538;BME280;68989;52.032;5.152;2023-04-03T02:14:36;103238.33;;;9.89;49.63
79538;BME280;68989;52.032;5.152;2023-04-03T02:17:02;103239.74;;;9.89;49.55
79538;BME280;68989;52.032;5.152;2023-04-03T02:19:29;103240.12;;;9.87;49.11
79538;BME280;68989;52.032;5.152;2023-04-03T02:21:56;103238.50;;;9.81;49.22
79538;BME280;68989;52.032;5.152;2023-04-03T02:24:23;103240.52;;;9.74;49.66
79538;BME280;68989;52.032;5.152;2023-04-03T02:26:51;103242.07;;;9.71;49.74
79538;BME280;68989;52.032;5.152;2023-04-03T02:29:17;103243.53;;;9.70;49.78
79538;BME280;68989;52.032;5.152;2023-04-03T02:31:44;103243.30;;;9.67;49.68
79538;BME280;68989;52.032;5.152;2023-04-03T02:34:11;103243.26;;;9.65;49.80
79538;BME280;68989;52.032;5.152;2023-04-03T02:36:38;103238.98;;;9.63;49.64
79538;BME280;68989;52.032;5.152;2023-04-03T02:39:06;103241.19;;;9.61;49.82
79538;BME280;68989;52.032;5.152;2023-04-03T02:41:32;103241.17;;;9.61;49.52
79538;BME280;68989;52.032;5.152;2023-04-03T02:43:59;103245.52;;;9.57;49.66
79538;BME280;68989;52.032;5.152;2023-04-03T02:46:26;103245.19;;;9.54;49.74
79538;BME280;68989;52.032;5.152;2023-04-03T02:48:53;103245.76;;;9.49;49.98
79538;BME280;68989;52.032;5.152;2023-04-03T02:51:20;103249.63;;;9.48;49.76
79538;BME280;68989;52.032;5.152;2023-04-03T02:53:47;103254.80;;;9.47;49.89
79538;BME280;68989;52.032;5.152;2023-04-03T02:56:14;103255.88;;;9.48;50.02
79538;BME280;68989;52.032;5.152;2023-04-03T02:58:41;103257.14;;;9.46;49.91
79538;BME280;68989;52.032;5.152;2023-04-03T03:01:08;103258.19;;;9.45;49.59
79538;BME280;68989;52.032;5.152;2023-04-03T03:03:35;103259.88;;;9.41;50.00
79538;BME280;68989;52.032;5.152;2023-04-03T03:06:03;103261.02;;;9.39;49.92
79538;BME280;68989;52.032;5.152;2023-04-03T03:08:31;103261.26;;;9.38;50.12
79538;BME280;68989;52.032;5.152;2023-04-03T03:10:58;103263.65;;;9.33;50.26
79538;BME280;68989;52.032;5.152;2023-04-03T03:13:25;103263.21;;;9.31;50.32
79538;BME280;68989;52.032;5.152;2023-04-03T03:15:52;103265.65;;;9.29;50.30
79538;BME280;68989;52.032;5.152;2023-04-03T03:18:19;103266.45;;;9.28;50.42
79538;BME280;68989;52.032;5.152;2023-04-03T03:20:46;103266.81;;;9.28;50.27
79538;BME280;68989;52.032;5.152;2023-04-03T03:23:13;103270.04;;;9.29;50.45
79538;BME280;68989;52.032;5.152;2023-04-03T03:25:40;103274.21;;;9.31;50.34
79538;BME280;68989;52.032;5.152;2023-04-03T03:28:08;103276.40;;;9.31;50.30
79538;BME280;68989;52.032;5.152;2023-04-03T03:30:35;103281.10;;;9.32;50.14
79538;BME280;68989;52.032;5.152;2023-04-03T03:33:02;103279.54;;;9.32;50.31
79538;BME280;68989;52.032;5.152;2023-04-03T03:35:29;103280.65;;;9.31;50.08
79538;BME280;68989;52.032;5.152;2023-04-03T03:37:56;103280.57;;;9.28;50.15
79538;BME280;68989;52.032;5.152;2023-04-03T03:40:23;103279.14;;;9.26;50.30
79538;BME280;68989;52.032;5.152;2023-04-03T03:42:50;103281.49;;;9.22;50.18
79538;BME280;68989;52.032;5.152;2023-04-03T03:45:17;103283.99;;;9.19;49.86
79538;BME280;68989;52.032;5.152;2023-04-03T03:47:44;103282.43;;;9.16;50.46
79538;BME280;68989;52.032;5.152;2023-04-03T03:50:10;103280.90;;;9.13;49.96
79538;BME280;68989;52.032;5.152;2023-04-03T03:52:38;103285.83;;;9.08;50.41
79538;BME280;68989;52.032;5.152;2023-04-03T03:55:05;103283.54;;;9.05;50.32
79538;BME280;68989;52.032;5.152;2023-04-03T03:57:33;103285.16;;;9.02;50.68
79538;BME280;68989;52.032;5.152;2023-04-03T03:59:59;103286.91;;;8.96;50.27
79538;BME280;68989;52.032;5.152;2023-04-03T04:02:26;103285.40;;;8.91;50.73
79538;BME280;68989;52.032;5.152;2023-04-03T04:04:53;103285.79;;;8.84;50.63
79538;BME280;68989;52.032;5.152;2023-04-03T04:07:20;103286.54;;;8.81;51.16
79538;BME280;68989;52.032;5.152;2023-04-03T04:09:47;103287.09;;;8.80;50.89
79538;BME280;68989;52.032;5.152;2023-04-03T04:12:14;103286.91;;;8.80;51.18
79538;BME280;68989;52.032;5.152;2023-04-03T04:14:41;103285.25;;;8.82;50.92
79538;BME280;68989;52.032;5.152;2023-04-03T04:17:08;103287.41;;;8.82;51.12
79538;BME280;68989;52.032;5.152;2023-04-03T04:19:35;103291.35;;;8.83;51.19
79538;BME280;68989;52.032;5.152;2023-04-03T04:22:02;103294.76;;;8.82;50.75
79538;BME280;68989;52.032;5.152;2023-04-03T04:24:29;103297.17;;;8.82;51.06
79538;BME280;68989;52.032;5.152;2023-04-03T04:26:56;103299.25;;;8.83;50.98
79538;BME280;68989;52.032;5.152;2023-04-03T04:29:23;103298.89;;;8.85;50.92
79538;BME280;68989;52.032;5.152;2023-04-03T04:31:50;103299.56;;;8.84;50.92
79538;BME280;68989;52.032;5.152;2023-04-03T04:34:17;103300.03;;;8.83;50.77
79538;BME280;68989;52.032;5.152;2023-04-03T04:36:44;103300.09;;;8.78;50.56
79538;BME280;68989;52.032;5.152;2023-04-03T04:39:11;103297.91;;;8.74;51.06
79538;BME280;68989;52.032;5.152;2023-04-03T04:41:38;103301.52;;;8.74;50.81
79538;BME280;68989;52.032;5.152;2023-04-03T04:44:05;103304.95;;;8.72;51.08
79538;BME280;68989;52.032;5.152;2023-04-03T04:46:32;103312.25;;;8.67;50.64
79538;BME280;68989;52.032;5.152;2023-04-03T04:48:59;103316.17;;;8.59;51.07
79538;BME280;68989;52.032;5.152;2023-04-03T04:51:26;103316.02;;;8.56;51.23
79538;BME280;68989;52.032;5.152;2023-04-03T04:53:53;103319.13;;;8.54;51.11
79538;BME280;68989;52.032;5.152;2023-04-03T04:56:20;103319.33;;;8.51;51.11
79538;BME280;68989;52.032;5.152;2023-04-03T04:58:47;103316.27;;;8.45;51.54
79538;BME280;68989;52.032;5.152;2023-04-03T05:01:14;103310.37;;;8.40;51.65
79538;BME280;68989;52.032;5.152;2023-04-03T05:03:41;103313.58;;;8.38;51.52
79538;BME280;68989;52.032;5.152;2023-04-03T05:06:08;103314.16;;;8.40;51.87
79538;BME280;68989;52.032;5.152;2023-04-03T05:08:35;103309.49;;;8.41;51.84
79538;BME280;68989;52.032;5.152;2023-04-03T05:11:02;103313.50;;;8.42;51.64
79538;BME280;68989;52.032;5.152;2023-04-03T05:13:29;103316.22;;;8.36;51.90
79538;BME280;68989;52.032;5.152;2023-04-03T05:15:56;103316.99;;;8.36;51.96
79538;BME280;68989;52.032;5.152;2023-04-03T05:18:23;103319.41;;;8.35;51.92
79538;BME280;68989;52.032;5.152;2023-04-03T05:20:50;103324.73;;;8.36;51.99
79538;BME280;68989;52.032;5.152;2023-04-03T05:23:18;103325.51;;;8.35;51.57
79538;BME280;68989;52.032;5.152;2023-04-03T05:25:45;103333.11;;;8.36;51.92
79538;BME280;68989;52.032;5.152;2023-04-03T05:28:12;103337.92;;;8.38;51.84
79538;BME280;68989;52.032;5.152;2023-04-03T05:30:39;103346.01;;;8.42;51.92
79538;BME280;68989;52.032;5.152;2023-04-03T05:33:06;103343.56;;;8.46;51.56
79538;BME280;68989;52.032;5.152;2023-04-03T05:35:33;103347.29;;;8.49;51.50
79538;BME280;68989;52.032;5.152;2023-04-03T05:38:01;103350.46;;;8.50;51.43
79538;BME280;68989;52.032;5.152;2023-04-03T05:40:28;103350.89;;;8.51;51.48
79538;BME280;68989;52.032;5.152;2023-04-03T05:42:55;103344.02;;;8.49;51.43
79538;BME280;68989;52.032;5.152;2023-04-03T05:45:22;103342.83;;;8.49;51.52
79538;BME280;68989;52.032;5.152;2023-04-03T05:47:49;103338.49;;;8.46;51.13
79538;BME280;68989;52.032;5.152;2023-04-03T05:50:16;103342.49;;;8.33;51.57
79538;BME280;68989;52.032;5.152;2023-04-03T05:52:45;103346.31;;;8.26;51.97
79538;BME280;68989;52.032;5.152;2023-04-03T05:55:13;103347.52;;;8.23;52.20
79538;BME280;68989;52.032;5.152;2023-04-03T05:57:41;103351.65;;;8.26;52.29
79538;BME280;68989;52.032;5.152;2023-04-03T06:00:11;103360.00;;;8.26;52.17
79538;BME280;68989;52.032;5.152;2023-04-03T06:02:39;103364.56;;;8.21;52.10
79538;BME280;68989;52.032;5.152;2023-04-03T06:05:06;103364.77;;;8.11;52.31
79538;BME280;68989;52.032;5.152;2023-04-03T06:07:33;103362.86;;;7.99;52.97
79538;BME280;68989;52.032;5.152;2023-04-03T06:10:01;103363.57;;;7.99;53.20
79538;BME280;68989;52.032;5.152;2023-04-03T06:12:28;103362.84;;;8.05;53.07
79538;BME280;68989;52.032;5.152;2023-04-03T06:14:55;103364.97;;;8.09;53.07
79538;BME280;68989;52.032;5.152;2023-04-03T06:17:22;103363.63;;;8.15;53.10
79538;BME280;68989;52.032;5.152;2023-04-03T06:19:49;103362.88;;;8.21;52.63
79538;BME280;68989;52.032;5.152;2023-04-03T06:22:16;103365.41;;;8.16;52.82
79538;BME280;68989;52.032;5.152;2023-04-03T06:24:43;103367.53;;;8.07;52.67
79538;BME280;68989;52.032;5.152;2023-04-03T06:27:11;103370.24;;;8.01;53.29
79538;BME280;68989;52.032;5.152;2023-04-03T06:29:38;103370.83;;;8.01;53.10
79538;BME280;68989;52.032;5.152;2023-04-03T06:32:05;103372.10;;;7.98;53.22
79538;BME280;68989;52.032;5.152;2023-04-03T06:34:32;103371.51;;;8.01;53.59
79538;BME280;68989;52.032;5.152;2023-04-03T06:36:59;103377.76;;;8.10;53.31
79538;BME280;68989;52.032;5.152;2023-04-03T06:39:26;103379.92;;;8.17;53.05
79538;BME280;68989;52.032;5.152;2023-04-03T06:41:53;103383.45;;;8.13;53.07
79538;BME280;68989;52.032;5.152;2023-04-03T06:44:20;103383.64;;;8.18;53.28
79538;BME280;68989;52.032;5.152;2023-04-03T06:46:47;103385.07;;;8.25;53.24
79538;BME280;68989;52.032;5.152;2023-04-03T06:49:14;103390.77;;;8.37;53.10
79538;BME280;68989;52.032;5.152;2023-04-03T06:51:41;103393.75;;;8.44;52.48
79538;BME280;68989;52.032;5.152;2023-04-03T06:54:08;103392.93;;;8.47;52.91
79538;BME280;68989;52.032;5.152;2023-04-03T06:56:35;103391.01;;;8.57;52.58
79538;BME280;68989;52.032;5.152;2023-04-03T06:59:02;103391.08;;;8.74;52.86
79538;BME280;68989;52.032;5.152;2023-04-03T07:01:30;103395.89;;;8.93;52.29
79538;BME280;68989;52.032;5.152;2023-04-03T07:03:58;103399.15;;;9.10;52.17
79538;BME280;68989;52.032;5.152;2023-04-03T07:06:25;103402.12;;;9.28;51.91
79538;BME280;68989;52.032;5.152;2023-04-03T07:08:51;103401.75;;;9.44;50.99
79538;BME280;68989;52.032;5.152;2023-04-03T07:11:19;103404.13;;;9.45;50.57
79538;BME280;68989;52.032;5.152;2023-04-03T07:13:46;103405.07;;;9.52;50.84
79538;BME280;68989;52.032;5.152;2023-04-03T07:16:12;103403.17;;;9.61;49.93
79538;BME280;68989;52.032;5.152;2023-04-03T07:18:39;103407.93;;;9.69;49.89
79538;BME280;68989;52.032;5.152;2023-04-03T07:21:06;103409.17;;;9.74;49.52
79538;BME280;68989;52.032;5.152;2023-04-03T07:23:34;103410.95;;;9.76;49.61
79538;BME280;68989;52.032;5.152;2023-04-03T07:26:01;103417.59;;;9.87;49.61
79538;BME280;68989;52.032;5.152;2023-04-03T07:28:28;103416.40;;;9.94;48.96
79538;BME280;68989;52.032;5.152;2023-04-03T07:31:00;103414.65;;;9.92;48.44
79538;BME280;68989;52.032;5.152;2023-04-03T07:33:27;103416.77;;;9.98;48.67
79538;BME280;68989;52.032;5.152;2023-04-03T07:35:54;103415.01;;;10.06;48.93
79538;BME280;68989;52.032;5.152;2023-04-03T07:38:22;103414.35;;;10.19;48.58
79538;BME280;68989;52.032;5.152;2023-04-03T07:40:50;103414.60;;;10.36;48.47
79538;BME280;68989;52.032;5.152;2023-04-03T07:43:19;103413.82;;;10.40;47.99
79538;BME280;68989;52.032;5.152;2023-04-03T07:45:46;103413.96;;;10.45;47.93
79538;BME280;68989;52.032;5.152;2023-04-03T07:48:14;103413.96;;;10.49;47.56
79538;BME280;68989;52.032;5.152;2023-04-03T07:50:41;103414.21;;;10.50;47.54
79538;BME280;68989;52.032;5.152;2023-04-03T07:53:08;103416.08;;;10.55;47.08
79538;BME280;68989;52.032;5.152;2023-04-03T07:55:35;103420.42;;;10.52;46.29
79538;BME280;68989;52.032;5.152;2023-04-03T07:58:02;103429.96;;;10.59;47.34
79538;BME280;68989;52.032;5.152;2023-04-03T08:00:29;103430.02;;;10.78;47.22
79538;BME280;68989;52.032;5.152;2023-04-03T08:02:56;103426.73;;;10.91;47.09
79538;BME280;68989;52.032;5.152;2023-04-03T08:05:23;103421.94;;;11.04;46.33
79538;BME280;68989;52.032;5.152;2023-04-03T08:07:50;103424.72;;;11.22;46.55
79538;BME280;68989;52.032;5.152;2023-04-03T08:10:17;103428.29;;;11.42;46.21
79538;BME280;68989;52.032;5.152;2023-04-03T08:12:47;103435.38;;;11.50;45.64
79538;BME280;68989;52.032;5.152;2023-04-03T08:15:15;103434.77;;;11.64;44.86
79538;BME280;68989;52.032;5.152;2023-04-03T08:17:41;103429.99;;;11.70;44.53
79538;BME280;68989;52.032;5.152;2023-04-03T08:20:10;103430.31;;;11.66;44.03
79538;BME280;68989;52.032;5.152;2023-04-03T08:22:37;103430.95;;;11.73;43.39
79538;BME280;68989;52.032;5.152;2023-04-03T08:25:05;103437.78;;;11.86;44.20
79538;BME280;68989;52.032;5.152;2023-04-03T08:27:32;103440.37;;;11.97;43.30
79538;BME280;68989;52.032;5.152;2023-04-03T08:30:00;103442.94;;;12.02;43.58
79538;BME280;68989;52.032;5.152;2023-04-03T08:32:27;103445.39;;;12.04;41.82
79538;BME280;68989;52.032;5.152;2023-04-03T08:34:54;103449.52;;;12.01;42.21
79538;BME280;68989;52.032;5.152;2023-04-03T08:37:21;103451.27;;;11.94;42.51
79538;BME280;68989;52.032;5.152;2023-04-03T08:39:48;103454.17;;;11.94;43.10
79538;BME280;68989;52.032;5.152;2023-04-03T08:42:22;103454.99;;;12.03;42.77
79538;BME280;68989;52.032;5.152;2023-04-03T08:44:57;103453.35;;;11.97;42.48
79538;BME280;68989;52.032;5.152;2023-04-03T08:47:38;103450.82;;;11.83;42.17
79538;BME280;68989;52.032;5.152;2023-04-03T08:50:10;103451.36;;;11.77;42.95
79538;BME280;68989;52.032;5.152;2023-04-03T08:52:41;103455.59;;;11.51;41.92
79538;BME280;68989;52.032;5.152;2023-04-03T08:55:21;103452.91;;;11.48;43.19
79538;BME280;68989;52.032;5.152;2023-04-03T08:57:51;103453.04;;;11.49;42.50
79538;BME280;68989;52.032;5.152;2023-04-03T09:00:23;103450.18;;;11.55;42.39
79538;BME280;68989;52.032;5.152;2023-04-03T09:02:52;103444.52;;;11.61;41.28
79538;BME280;68989;52.032;5.152;2023-04-03T09:05:29;103445.98;;;11.69;41.88
79538;BME280;68989;52.032;5.152;2023-04-03T09:08:03;103443.70;;;11.73;40.22
79538;BME280;68989;52.032;5.152;2023-04-03T09:10:34;103444.72;;;11.80;40.21
79538;BME280;68989;52.032;5.152;2023-04-03T09:13:06;103446.47;;;11.90;40.20
79538;BME280;68989;52.032;5.152;2023-04-03T09:15:38;103441.92;;;12.09;40.23
79538;BME280;68989;52.032;5.152;2023-04-03T09:18:12;103439.89;;;12.26;37.17
79538;BME280;68989;52.032;5.152;2023-04-03T09:20:46;103441.35;;;12.31;35.22
79538;BME280;68989;52.032;5.152;2023-04-03T09:23:21;103445.94;;;12.33;35.70
79538;BME280;68989;52.032;5.152;2023-04-03T09:25:50;103447.53;;;12.42;35.96
79538;BME280;68989;52.032;5.152;2023-04-03T09:28:19;103447.58;;;12.57;35.96
79538;BME280;68989;52.032;5.152;2023-04-03T09:30:46;103446.67;;;12.78;37.26
79538;BME280;68989;52.032;5.152;2023-04-03T09:33:13;103436.19;;;12.97;36.88
79538;BME280;68989;52.032;5.152;2023-04-03T09:35:41;103433.44;;;13.05;36.01
79538;BME280;68989;52.032;5.152;2023-04-03T09:38:19;103428.08;;;13.11;35.32
79538;BME280;68989;52.032;5.152;2023-04-03T09:40:47;103423.56;;;13.08;35.08
79538;BME280;68989;52.032;5.152;2023-04-03T09:43:25;103424.40;;;13.05;35.23
79538;BME280;68989;52.032;5.152;2023-04-03T09:45:54;103424.24;;;12.90;31.95
79538;BME280;68989;52.032;5.152;2023-04-03T09:48:23;103423.63;;;12.68;31.85
79538;BME280;68989;52.032;5.152;2023-04-03T09:50:55;103419.83;;;12.61;33.07
79538;BME280;68989;52.032;5.152;2023-04-03T09:53:28;103425.46;;;12.46;31.78
79538;BME280;68989;52.032;5.152;2023-04-03T09:55:55;103420.57;;;12.38;32.80
79538;BME280;68989;52.032;5.152;2023-04-03T09:58:26;103415.18;;;12.22;31.62
79538;BME280;68989;52.032;5.152;2023-04-03T10:00:56;103417.88;;;12.25;32.19
79538;BME280;68989;52.032;5.152;2023-04-03T10:03:25;103418.86;;;12.17;31.35
79538;BME280;68989;52.032;5.152;2023-04-03T10:05:53;103417.33;;;12.23;31.87
79538;BME280;68989;52.032;5.152;2023-04-03T10:08:23;103410.74;;;12.45;32.28
79538;BME280;68989;52.032;5.152;2023-04-03T10:11:08;103398.64;;;12.82;33.97
79538;BME280;68989;52.032;5.152;2023-04-03T10:13:36;103403.41;;;13.18;32.36
79538;BME280;68989;52.032;5.152;2023-04-03T10:16:08;103401.55;;;13.40;30.21
79538;BME280;68989;52.032;5.152;2023-04-03T10:18:42;103386.56;;;13.70;30.80
79538;BME280;68989;52.032;5.152;2023-04-03T10:21:18;103385.72;;;14.02;30.88
79538;BME280;68989;52.032;5.152;2023-04-03T10:23:51;103383.97;;;14.41;30.76
79538;BME280;68989;52.032;5.152;2023-04-03T10:26:31;103388.61;;;14.78;29.45
79538;BME280;68989;52.032;5.152;2023-04-03T10:29:04;103374.42;;;15.06;26.71
79538;BME280;68989;52.032;5.152;2023-04-03T10:31:41;103371.69;;;15.20;27.34
79538;BME280;68989;52.032;5.152;2023-04-03T10:34:17;103364.70;;;15.40;28.93
79538;BME280;68989;52.032;5.152;2023-04-03T10:36:53;103358.65;;;15.58;27.96
79538;BME280;68989;52.032;5.152;2023-04-03T10:39:30;103348.26;;;15.76;27.31
79538;BME280;68989;52.032;5.152;2023-04-03T10:42:04;103347.67;;;15.81;25.21
79538;BME280;68989;52.032;5.152;2023-04-03T10:44:42;103346.34;;;15.78;26.49
79538;BME280;68989;52.032;5.152;2023-04-03T10:47:18;103347.04;;;15.86;26.79
79538;BME280;68989;52.032;5.152;2023-04-03T10:49:54;103345.39;;;16.07;27.56
79538;BME280;68989;52.032;5.152;2023-04-03T10:52:29;103350.05;;;16.25;26.46
79538;BME280;68989;52.032;5.152;2023-04-03T10:55:05;103353.63;;;16.35;25.47
79538;BME280;68989;52.032;5.152;2023-04-03T10:57:34;103353.47;;;16.43;25.55
79538;BME280;68989;52.032;5.152;2023-04-03T11:00:05;103349.87;;;16.46;23.90
79538;BME280;68989;52.032;5.152;2023-04-03T11:02:37;103341.60;;;16.49;24.28
79538;BME280;68989;52.032;5.152;2023-04-03T11:05:13;103343.21;;;16.57;23.65
79538;BME280;68989;52.032;5.152;2023-04-03T11:07:45;103335.04;;;16.57;23.23
79538;BME280;68989;52.032;5.152;2023-04-03T11:10:19;103341.55;;;16.63;24.17
79538;BME280;68989;52.032;5.152;2023-04-03T11:12:52;103336.46;;;16.89;25.07
79538;BME280;68989;52.032;5.152;2023-04-03T11:15:23;103342.79;;;17.15;24.03
79538;BME280;68989;52.032;5.152;2023-04-03T11:17:54;103347.33;;;17.28;23.62
79538;BME280;68989;52.032;5.152;2023-04-03T11:20:26;103335.07;;;17.52;24.69
79538;BME280;68989;52.032;5.152;2023-04-03T11:23:00;103333.94;;;17.76;24.76
79538;BME280;68989;52.032;5.152;2023-04-03T11:25:29;103336.66;;;18.01;24.53
79538;BME280;68989;52.032;5.152;2023-04-03T11:28:00;103334.55;;;18.24;24.93
79538;BME280;68989;52.032;5.152;2023-04-03T11:30:31;103325.37;;;18.45;24.85
79538;BME280;68989;52.032;5.152;2023-04-03T11:33:19;103328.83;;;18.46;23.92
79538;BME280;68989;52.032;5.152;2023-04-03T11:35:50;103326.24;;;18.64;25.62
79538;BME280;68989;52.032;5.152;2023-04-03T11:38:23;103324.64;;;18.72;24.44
79538;BME280;68989;52.032;5.152;2023-04-03T11:40:58;103319.35;;;18.77;23.66
79538;BME280;68989;52.032;5.152;2023-04-03T11:43:26;103324.34;;;18.87;24.09
79538;BME280;68989;52.032;5.152;2023-04-03T11:45:56;103323.47;;;18.99;25.32
79538;BME280;68989;52.032;5.152;2023-04-03T11:48:57;103320.69;;;19.15;24.71
79538;BME280;68989;52.032;5.152;2023-04-03T11:51:57;103316.90;;;19.36;24.38
79538;BME280;68989;52.032;5.152;2023-04-03T11:54:55;103306.79;;;19.54;25.29
79538;BME280;68989;52.032;5.152;2023-04-03T11:57:44;103307.69;;;19.66;24.41
79538;BME280;68989;52.032;5.152;2023-04-03T12:01:43;103303.68;;;19.58;22.83
79538;BME280;68989;52.032;5.152;2023-04-03T12:04:12;103300.70;;;19.38;22.76
79538;BME280;68989;52.032;5.152;2023-04-03T12:07:40;103290.47;;;19.37;23.73
79538;BME280;68989;52.032;5.152;2023-04-03T12:10:23;103287.47;;;19.34;22.74
79538;BME280;68989;52.032;5.152;2023-04-03T12:13:15;103286.37;;;19.15;22.15
79538;BME280;68989;52.032;5.152;2023-04-03T12:15:52;103277.39;;;18.94;23.06
79538;BME280;68989;52.032;5.152;2023-04-03T12:18:48;103278.63;;;18.82;23.06
79538;BME280;68989;52.032;5.152;2023-04-03T12:21:22;103267.95;;;18.78;22.98
79538;BME280;68989;52.032;5.152;2023-04-03T12:24:24;103265.94;;;18.92;24.46
79538;BME280;68989;52.032;5.152;2023-04-03T12:27:03;103261.04;;;19.17;24.78
79538;BME280;68989;52.032;5.152;2023-04-03T12:29:35;103260.05;;;19.38;24.66
79538;BME280;68989;52.032;5.152;2023-04-03T12:32:13;103253.83;;;19.50;23.44
79538;BME280;68989;52.032;5.152;2023-04-03T12:34:55;103245.93;;;19.66;24.14
79538;BME280;68989;52.032;5.152;2023-04-03T12:37:44;103245.60;;;19.85;23.54
79538;BME280;68989;52.032;5.152;2023-04-03T12:40:24;103250.50;;;20.00;24.31
79538;BME280;68989;52.032;5.152;2023-04-03T12:43:07;103246.37;;;20.16;24.11
79538;BME280;68989;52.032;5.152;2023-04-03T12:45:42;103239.54;;;20.05;22.40
79538;BME280;68989;52.032;5.152;2023-04-03T12:48:15;103245.27;;;20.02;24.49
79538;BME280;68989;52.032;5.152;2023-04-03T12:50:46;103242.75;;;20.17;23.81
79538;BME280;68989;52.032;5.152;2023-04-03T12:53:16;103235.62;;;20.32;24.43
79538;BME280;68989;52.032;5.152;2023-04-03T12:55:45;103233.76;;;20.36;22.41
79538;BME280;68989;52.032;5.152;2023-04-03T12:58:19;103236.05;;;20.11;23.46
79538;BME280;68989;52.032;5.152;2023-04-03T13:00:59;103228.02;;;20.24;23.76
79538;BME280;68989;52.032;5.152;2023-04-03T13:03:27;103218.69;;;20.33;22.83
79538;BME280;68989;52.032;5.152;2023-04-03T13:05:57;103221.98;;;20.22;22.46
79538;BME280;68989;52.032;5.152;2023-04-03T13:08:26;103218.10;;;20.11;22.24
79538;BME280;68989;52.032;5.152;2023-04-03T13:10:58;103221.28;;;19.86;22.24
79538;BME280;68989;52.032;5.152;2023-04-03T13:13:28;103220.75;;;19.65;22.46